createdAt,value
2019-04-14T00:01:39.110Z,95269.00
2019-04-14T00:04:16.107Z,95263.00
2019-04-14T00:06:46.619Z,95270.00
2019-04-14T00:09:20.453Z,95263.00
2019-04-14T00:11:53.031Z,95258.00
2019-04-14T00:14:23.182Z,95259.00
2019-04-14T00:16:53.261Z,95258.00
2019-04-14T00:19:23.889Z,95256.00
2019-04-14T00:21:54.442Z,95255.00
2019-04-14T00:24:24.907Z,95240.00
2019-04-14T00:26:55.263Z,95251.00
2019-04-14T00:29:26.326Z,95252.00
2019-04-14T00:31:56.979Z,95249.00
2019-04-14T00:34:46.294Z,95252.00
2019-04-14T00:37:34.433Z,95241.00
2019-04-14T00:40:23.604Z,95248.00
2019-04-14T00:43:04.861Z,95250.00
2019-04-14T00:45:49.932Z,95260.00
2019-04-14T00:48:19.860Z,95265.00
2019-04-14T00:50:49.651Z,95256.00
2019-04-14T00:53:20.736Z,95247.00
2019-04-14T00:55:51.131Z,95240.00
2019-04-14T00:58:23.507Z,95238.00
2019-04-14T01:00:53.892Z,95238.00
2019-04-14T01:03:24.466Z,95242.00
2019-04-14T01:05:54.791Z,95240.00
2019-04-14T01:08:24.996Z,95232.00
2019-04-14T01:10:56.131Z,95230.00
2019-04-14T01:13:26.765Z,95237.00
2019-04-14T01:16:03.875Z,95237.00
2019-04-14T01:18:29.732Z,95225.00
2019-04-14T01:21:00.288Z,95241.00
2019-04-14T01:23:30.790Z,95234.00
2019-04-14T01:26:00.881Z,95233.00
2019-04-14T01:28:30.895Z,95242.00
2019-04-14T01:31:01.200Z,95244.00
2019-04-14T01:33:31.634Z,95225.00
2019-04-14T01:36:01.866Z,95240.00
2019-04-14T01:38:31.978Z,95234.00
2019-04-14T01:41:02.222Z,95232.00
2019-04-14T01:43:32.202Z,95225.00
2019-04-14T01:46:11.673Z,95221.00
2019-04-14T01:48:35.400Z,95225.00
2019-04-14T01:51:23.142Z,95226.00
2019-04-14T01:54:10.683Z,95237.00
2019-04-14T01:56:53.631Z,95227.00
2019-04-14T01:59:24.189Z,95234.00
2019-04-14T02:01:55.058Z,95237.00
2019-04-14T02:04:25.127Z,95228.00
2019-04-14T02:06:55.311Z,95236.00
2019-04-14T02:09:25.290Z,95235.00
2019-04-14T02:11:55.309Z,95226.00
2019-04-14T02:14:25.538Z,95229.00
2019-04-14T02:16:59.089Z,95244.00
2019-04-14T02:19:28.366Z,95229.00
2019-04-14T02:21:58.614Z,95234.00
2019-04-14T02:24:28.923Z,95236.00
2019-04-14T02:26:59.157Z,95233.00
2019-04-14T02:29:29.758Z,95235.00
2019-04-14T02:32:28.497Z,95226.00
2019-04-14T02:34:57.486Z,95227.00
2019-04-14T02:37:26.628Z,95222.00
2019-04-14T02:40:18.164Z,95222.00
2019-04-14T02:45:08.888Z,95236.00
2019-04-14T02:50:10.937Z,95229.00
2019-04-14T02:52:46.656Z,95230.00
2019-04-14T02:55:10.859Z,95231.00
2019-04-14T02:57:49.374Z,95234.00
2019-04-14T03:00:25.979Z,95229.00
2019-04-14T03:02:47.415Z,95238.00
2019-04-14T03:05:19.790Z,95229.00
2019-04-14T03:07:51.475Z,95229.00
2019-04-14T03:10:28.175Z,95224.00
2019-04-14T03:12:57.941Z,95233.00
2019-04-14T03:15:37.921Z,95225.00
2019-04-14T03:18:33.782Z,95231.00
2019-04-14T03:23:53.370Z,95227.00
2019-04-14T03:26:29.445Z,95226.00
2019-04-14T03:28:56.447Z,95232.00
2019-04-14T03:34:30.233Z,95224.00
2019-04-14T03:39:17.410Z,95227.00
2019-04-14T03:44:20.972Z,95230.00
2019-04-14T03:46:53.384Z,95234.00
2019-04-14T03:51:50.442Z,95230.00
2019-04-14T03:54:15.621Z,95242.00
2019-04-14T03:56:49.250Z,95244.00
2019-04-14T03:59:19.822Z,95236.00
2019-04-14T04:01:50.144Z,95239.00
2019-04-14T04:04:20.633Z,95239.00
2019-04-14T04:06:51.084Z,95242.00
2019-04-14T04:09:25.717Z,95235.00
2019-04-14T04:11:56.352Z,95237.00
2019-04-14T04:14:27.111Z,95232.00
2019-04-14T04:17:12.160Z,95240.00
2019-04-14T04:19:53.439Z,95233.00
2019-04-14T04:22:43.521Z,95233.00
2019-04-14T04:25:22.484Z,95243.00
2019-04-14T04:28:06.073Z,95243.00
2019-04-14T04:30:47.030Z,95250.00
2019-04-14T04:33:26.312Z,95250.00
2019-04-14T04:36:01.065Z,95253.00
2019-04-14T04:38:39.929Z,95261.00
2019-04-14T04:41:10.643Z,95259.00
2019-04-14T04:43:41.920Z,95265.00
2019-04-14T04:46:13.443Z,95278.00
2019-04-14T04:48:43.684Z,95271.00
2019-04-14T04:51:13.984Z,95284.00
2019-04-14T04:53:44.061Z,95276.00
2019-04-14T04:56:14.334Z,95272.00
2019-04-14T04:58:44.256Z,95270.00
2019-04-14T05:01:14.550Z,95280.00
2019-04-14T05:03:44.944Z,95276.00
2019-04-14T05:07:09.776Z,95278.00
2019-04-14T05:10:02.677Z,95293.00
2019-04-14T05:12:39.086Z,95299.00
2019-04-14T05:15:35.809Z,95286.00
2019-04-14T05:18:07.123Z,95303.00
2019-04-14T05:20:37.775Z,95300.00
2019-04-14T05:23:10.222Z,95307.00
2019-04-14T05:25:41.140Z,95302.00
2019-04-14T05:28:11.333Z,95292.00
2019-04-14T05:30:41.530Z,95295.00
2019-04-14T05:33:12.109Z,95312.00
2019-04-14T05:35:42.332Z,95295.00
2019-04-14T05:38:12.690Z,95304.00
2019-04-14T05:40:42.931Z,95305.00
2019-04-14T05:43:14.548Z,95311.00
2019-04-14T05:45:45.801Z,95313.00
2019-04-14T05:48:18.166Z,95320.00
2019-04-14T05:50:49.027Z,95311.00
2019-04-14T05:53:19.700Z,95302.00
2019-04-14T05:55:50.394Z,95305.00
2019-04-14T05:58:20.750Z,95304.00
2019-04-14T06:00:51.782Z,95306.00
2019-04-14T06:03:23.700Z,95316.00
2019-04-14T06:05:53.855Z,95315.00
2019-04-14T06:08:23.811Z,95316.00
2019-04-14T06:10:53.884Z,95312.00
2019-04-14T06:13:23.860Z,95315.00
2019-04-14T06:15:53.907Z,95318.00
2019-04-14T06:18:23.841Z,95315.00
2019-04-14T06:20:53.826Z,95310.00
2019-04-14T06:23:23.928Z,95313.00
2019-04-14T06:25:53.979Z,95329.00
2019-04-14T06:28:23.913Z,95318.00
2019-04-14T06:31:09.004Z,95324.00
2019-04-14T06:33:50.704Z,95315.00
2019-04-14T06:36:40.899Z,95322.00
2019-04-14T06:39:15.435Z,95329.00
2019-04-14T06:41:45.594Z,95320.00
2019-04-14T06:44:15.752Z,95311.00
2019-04-14T06:46:45.751Z,95327.00
2019-04-14T06:49:15.838Z,95323.00
2019-04-14T06:51:45.829Z,95327.00
2019-04-14T06:54:15.969Z,95316.00
2019-04-14T06:56:45.963Z,95315.00
2019-04-14T06:59:15.923Z,95325.00
2019-04-14T07:01:45.989Z,95310.00
2019-04-14T07:04:15.914Z,95313.00
2019-04-14T07:06:45.978Z,95317.00
2019-04-14T07:09:15.888Z,95329.00
2019-04-14T07:11:45.965Z,95320.00
2019-04-14T07:14:16.047Z,95317.00
2019-04-14T07:16:45.997Z,95329.00
2019-04-14T07:19:15.927Z,95328.00
2019-04-14T07:21:45.851Z,95321.00
2019-04-14T07:24:15.862Z,95324.00
2019-04-14T07:26:45.843Z,95320.00
2019-04-14T07:29:15.850Z,95335.00
2019-04-14T07:32:04.840Z,95325.00
2019-04-14T07:34:50.831Z,95333.00
2019-04-14T07:37:58.103Z,95322.00
2019-04-14T07:40:59.198Z,95325.00
2019-04-14T07:43:59.989Z,95323.00
2019-04-14T07:46:51.894Z,95328.00
2019-04-14T07:49:50.041Z,95328.00
2019-04-14T07:52:50.078Z,95332.00
2019-04-14T07:55:39.147Z,95332.00
2019-04-14T07:58:23.898Z,95325.00
2019-04-14T08:00:57.561Z,95320.00
2019-04-14T08:03:43.004Z,95321.00
2019-04-14T08:06:13.044Z,95326.00
2019-04-14T08:08:43.002Z,95316.00
2019-04-14T08:11:13.118Z,95313.00
2019-04-14T08:13:43.140Z,95317.00
2019-04-14T08:16:13.159Z,95332.00
2019-04-14T08:18:43.378Z,95316.00
2019-04-14T08:21:13.469Z,95333.00
2019-04-14T08:23:43.579Z,95329.00
2019-04-14T08:26:13.612Z,95327.00
2019-04-14T08:28:43.736Z,95336.00
2019-04-14T08:31:13.828Z,95320.00
2019-04-14T08:33:43.938Z,95334.00
2019-04-14T08:36:13.987Z,95321.00
2019-04-14T08:38:44.000Z,95334.00
2019-04-14T08:41:13.975Z,95322.00
2019-04-14T08:44:03.076Z,95324.00
2019-04-14T08:46:46.075Z,95319.00
2019-04-14T08:49:33.809Z,95312.00
2019-04-14T08:52:11.267Z,95321.00
2019-04-14T08:55:00.193Z,95318.00
2019-04-14T08:57:47.861Z,95328.00
2019-04-14T09:00:31.597Z,95319.00
2019-04-14T09:03:26.234Z,95334.00
2019-04-14T09:06:21.441Z,95330.00
2019-04-14T09:09:28.609Z,95331.00
2019-04-14T09:12:14.891Z,95319.00
2019-04-14T09:14:36.869Z,95321.00
2019-04-14T09:17:06.877Z,95321.00
2019-04-14T09:19:36.969Z,95313.00
2019-04-14T09:22:06.890Z,95315.00
2019-04-14T09:24:36.947Z,95317.00
2019-04-14T09:27:06.973Z,95316.00
2019-04-14T09:29:36.983Z,95323.00
2019-04-14T09:32:09.187Z,95319.00
2019-04-14T09:34:39.185Z,95322.00
2019-04-14T09:37:12.079Z,95323.00
2019-04-14T09:39:41.000Z,95325.00
2019-04-14T09:42:10.888Z,95326.00
2019-04-14T09:44:40.824Z,95329.00
2019-04-14T09:47:10.915Z,95312.00
2019-04-14T09:49:40.929Z,95324.00
2019-04-14T09:52:11.084Z,95320.00
2019-04-14T09:54:41.235Z,95315.00
2019-04-14T09:57:11.285Z,95314.00
2019-04-14T09:59:41.237Z,95315.00
2019-04-14T10:02:11.486Z,95323.00
2019-04-14T10:04:41.642Z,95326.00
2019-04-14T10:07:11.670Z,95332.00
2019-04-14T10:09:41.743Z,95322.00
2019-04-14T10:12:11.853Z,95324.00
2019-04-14T10:14:41.928Z,95325.00
2019-04-14T10:17:11.940Z,95322.00
2019-04-14T10:19:41.916Z,95316.00
2019-04-14T10:22:12.026Z,95325.00
2019-04-14T10:24:42.325Z,95316.00
2019-04-14T10:27:12.270Z,95319.00
2019-04-14T10:29:42.293Z,95315.00
2019-04-14T10:32:12.326Z,95310.00
2019-04-14T10:34:42.506Z,95326.00
2019-04-14T10:37:14.247Z,95317.00
2019-04-14T10:39:45.147Z,95311.00
2019-04-14T10:42:15.342Z,95315.00
2019-04-14T10:44:45.426Z,95313.00
2019-04-14T10:47:15.369Z,95305.00
2019-04-14T10:49:45.398Z,95314.00
2019-04-14T10:52:15.436Z,95318.00
2019-04-14T10:54:45.566Z,95309.00
2019-04-14T10:57:15.700Z,95320.00
2019-04-14T10:59:45.675Z,95309.00
2019-04-14T11:02:15.839Z,95318.00
2019-04-14T11:04:45.932Z,95309.00
2019-04-14T11:07:27.839Z,95319.00
2019-04-14T11:10:17.329Z,95310.00
2019-04-14T11:12:47.417Z,95316.00
2019-04-14T11:15:17.593Z,95327.00
2019-04-14T11:17:47.589Z,95326.00
2019-04-14T11:20:18.653Z,95327.00
2019-04-14T11:22:48.721Z,95341.00
2019-04-14T11:25:18.740Z,95339.00
2019-04-14T11:27:48.691Z,95332.00
2019-04-14T11:30:20.946Z,95342.00
2019-04-14T11:33:11.525Z,95350.00
2019-04-14T11:36:03.321Z,95349.00
2019-04-14T11:38:47.868Z,95344.00
2019-04-14T11:41:21.214Z,95347.00
2019-04-14T11:43:51.205Z,95353.00
2019-04-14T11:46:21.503Z,95345.00
2019-04-14T11:48:52.863Z,95353.00
2019-04-14T11:51:22.970Z,95359.00
2019-04-14T11:53:53.060Z,95364.00
2019-04-14T11:56:23.156Z,95362.00
2019-04-14T11:58:53.287Z,95367.00
2019-04-14T12:01:51.348Z,95351.00
2019-04-14T12:04:27.814Z,95373.00
2019-04-14T12:07:15.884Z,95371.00
2019-04-14T12:09:58.855Z,95373.00
2019-04-14T12:12:29.004Z,95367.00
2019-04-14T12:14:58.974Z,95384.00
2019-04-14T12:17:29.035Z,95373.00
2019-04-14T12:19:59.125Z,95364.00
2019-04-14T12:22:29.216Z,95379.00
2019-04-14T12:24:59.131Z,95371.00
2019-04-14T12:27:29.155Z,95386.00
2019-04-14T12:29:59.459Z,95385.00
2019-04-14T12:32:30.922Z,95383.00
2019-04-14T12:35:01.767Z,95375.00
2019-04-14T12:37:31.843Z,95380.00
2019-04-14T12:40:02.753Z,95381.00
2019-04-14T12:42:49.381Z,95388.00
2019-04-14T12:45:48.953Z,95386.00
2019-04-14T12:48:36.829Z,95386.00
2019-04-14T12:51:20.499Z,95396.00
2019-04-14T12:53:50.242Z,95394.00
2019-04-14T12:56:24.552Z,95388.00
2019-04-14T12:59:13.650Z,95389.00
2019-04-14T13:01:51.988Z,95381.00
2019-04-14T13:04:22.004Z,95386.00
2019-04-14T13:06:52.123Z,95398.00
2019-04-14T13:09:22.224Z,95385.00
2019-04-14T13:11:52.519Z,95395.00
2019-04-14T13:14:22.552Z,95387.00
2019-04-14T13:16:52.624Z,95392.00
2019-04-14T13:19:22.627Z,95389.00
2019-04-14T13:21:53.971Z,95391.00
2019-04-14T13:24:25.047Z,95392.00
2019-04-14T13:26:55.084Z,95389.00
2019-04-14T13:29:25.268Z,95393.00
2019-04-14T13:31:55.274Z,95394.00
2019-04-14T13:34:25.384Z,95391.00
2019-04-14T13:36:55.377Z,95394.00
2019-04-14T13:39:26.404Z,95391.00
2019-04-14T13:41:56.414Z,95404.00
2019-04-14T13:44:26.531Z,95396.00
2019-04-14T13:46:58.260Z,95404.00
2019-04-14T13:49:28.194Z,95399.00
2019-04-14T13:51:58.197Z,95391.00
2019-04-14T13:54:28.388Z,95400.00
2019-04-14T13:56:58.565Z,95397.00
2019-04-14T13:59:29.130Z,95396.00
2019-04-14T14:01:59.244Z,95395.00
2019-04-14T14:04:30.453Z,95397.00
2019-04-14T14:07:00.470Z,95399.00
2019-04-14T14:09:30.460Z,95408.00
2019-04-14T14:12:11.169Z,95402.00
2019-04-14T14:14:58.172Z,95400.00
2019-04-14T14:17:47.214Z,95402.00
2019-04-14T14:20:35.393Z,95408.00
2019-04-14T14:23:24.541Z,95404.00
2019-04-14T14:25:59.286Z,95409.00
2019-04-14T14:28:29.196Z,95408.00
2019-04-14T14:30:59.283Z,95405.00
2019-04-14T14:33:29.279Z,95401.00
2019-04-14T14:35:59.387Z,95408.00
2019-04-14T14:38:29.308Z,95428.00
2019-04-14T14:41:00.913Z,95407.00
2019-04-14T14:43:32.592Z,95404.00
2019-04-14T14:46:20.101Z,95413.00
2019-04-14T14:48:54.204Z,95414.00
2019-04-14T14:51:41.595Z,95412.00
2019-04-14T14:54:12.026Z,95413.00
2019-04-14T14:56:42.183Z,95412.00
2019-04-14T14:59:12.294Z,95407.00
2019-04-14T15:01:43.450Z,95403.00
2019-04-14T15:04:13.546Z,95412.00
2019-04-14T15:06:43.816Z,95416.00
2019-04-14T15:09:14.873Z,95419.00
2019-04-14T15:11:45.005Z,95410.00
2019-04-14T15:14:15.012Z,95420.00
2019-04-14T15:16:45.248Z,95421.00
2019-04-14T15:19:15.307Z,95428.00
2019-04-14T15:21:45.404Z,95431.00
2019-04-14T15:24:15.550Z,95431.00
2019-04-14T15:26:45.661Z,95430.00
2019-04-14T15:29:15.757Z,95441.00
2019-04-14T15:31:45.787Z,95434.00
2019-04-14T15:34:15.908Z,95427.00
2019-04-14T15:36:45.937Z,95434.00
2019-04-14T15:39:16.030Z,95435.00
2019-04-14T15:41:46.123Z,95438.00
2019-04-14T15:44:16.116Z,95424.00
2019-04-14T15:46:46.153Z,95435.00
2019-04-14T15:49:16.171Z,95433.00
2019-04-14T15:51:46.284Z,95440.00
2019-04-14T15:54:16.226Z,95451.00
2019-04-14T15:56:58.344Z,95443.00
2019-04-14T15:59:52.456Z,95437.00
2019-04-14T16:02:51.085Z,95441.00
2019-04-14T16:05:49.311Z,95449.00
2019-04-14T16:08:32.900Z,95449.00
2019-04-14T16:11:08.447Z,95461.00
2019-04-14T16:13:56.350Z,95460.00
2019-04-14T16:16:44.105Z,95468.00
2019-04-14T16:19:22.379Z,95471.00
2019-04-14T16:21:52.422Z,95478.00
2019-04-14T16:24:22.535Z,95465.00
2019-04-14T16:26:58.890Z,95478.00
2019-04-14T16:29:36.687Z,95475.00
2019-04-14T16:32:20.527Z,95479.00
2019-04-14T16:35:09.745Z,95475.00
2019-04-14T16:37:39.904Z,95485.00
2019-04-14T16:40:10.269Z,95476.00
2019-04-14T16:42:40.348Z,95480.00
2019-04-14T16:45:11.802Z,95480.00
2019-04-14T16:47:41.818Z,95481.00
2019-04-14T16:50:11.902Z,95481.00
2019-04-14T16:52:49.442Z,95498.00
2019-04-14T16:55:33.901Z,95496.00
2019-04-14T16:58:27.275Z,95490.00
2019-04-14T17:01:01.532Z,95492.00
2019-04-14T17:03:31.603Z,95513.00
2019-04-14T17:06:01.644Z,95511.00
2019-04-14T17:08:31.601Z,95514.00
2019-04-14T17:11:01.739Z,95519.00
2019-04-14T17:13:34.832Z,95511.00
2019-04-14T17:16:29.843Z,95515.00
2019-04-14T17:19:12.547Z,95524.00
2019-04-14T17:22:04.447Z,95526.00
2019-04-14T17:25:05.360Z,95525.00
2019-04-14T17:27:53.955Z,95525.00
2019-04-14T17:30:40.344Z,95527.00
2019-04-14T17:33:15.679Z,95531.00
2019-04-14T17:35:50.866Z,95546.00
2019-04-14T17:38:28.352Z,95546.00
2019-04-14T17:41:19.379Z,95540.00
2019-04-14T17:44:07.213Z,95543.00
2019-04-14T17:46:54.695Z,95551.00
2019-04-14T17:49:40.343Z,95557.00
2019-04-14T17:52:27.974Z,95552.00
2019-04-14T17:55:03.317Z,95564.00
2019-04-14T17:58:00.947Z,95560.00
2019-04-14T18:00:52.532Z,95575.00
2019-04-14T18:03:41.453Z,95570.00
2019-04-14T18:06:22.091Z,95582.00
2019-04-14T18:09:09.764Z,95587.00
2019-04-14T18:11:51.068Z,95597.00
2019-04-14T18:14:45.040Z,95595.00
2019-04-14T18:17:43.166Z,95599.00
2019-04-14T18:20:20.596Z,95618.00
2019-04-14T18:22:51.822Z,95618.00
2019-04-14T18:25:21.776Z,95608.00
2019-04-14T18:28:13.718Z,95622.00
2019-04-14T18:30:50.330Z,95622.00
2019-04-14T18:33:28.343Z,95621.00
2019-04-14T18:36:02.919Z,95637.00
2019-04-14T18:38:43.741Z,95639.00
2019-04-14T18:41:26.498Z,95643.00
2019-04-14T18:44:06.110Z,95636.00
2019-04-14T18:47:00.285Z,95646.00
2019-04-14T18:49:44.624Z,95652.00
2019-04-14T18:52:26.222Z,95650.00
2019-04-14T18:55:21.691Z,95660.00
2019-04-14T18:58:16.418Z,95660.00
2019-04-14T19:00:51.020Z,95668.00
2019-04-14T19:03:22.210Z,95677.00
2019-04-14T19:05:52.357Z,95674.00
2019-04-14T19:08:22.525Z,95679.00
2019-04-14T19:11:07.298Z,95687.00
2019-04-14T19:13:37.694Z,95680.00
2019-04-14T19:16:14.166Z,95684.00
2019-04-14T19:18:47.163Z,95683.00
2019-04-14T19:21:19.699Z,95684.00
2019-04-14T19:23:49.772Z,95691.00
2019-04-14T19:26:19.859Z,95691.00
2019-04-14T19:28:49.906Z,95693.00
2019-04-14T19:31:20.067Z,95685.00
2019-04-14T19:33:50.114Z,95691.00
2019-04-14T19:36:20.319Z,95692.00
2019-04-14T19:38:50.393Z,95701.00
2019-04-14T19:41:20.400Z,95708.00
2019-04-14T19:43:52.354Z,95723.00
2019-04-14T19:46:23.719Z,95721.00
2019-04-14T19:48:53.748Z,95722.00
2019-04-14T19:51:23.865Z,95715.00
2019-04-14T19:53:53.958Z,95706.00
2019-04-14T19:56:24.166Z,95727.00
2019-04-14T19:58:54.232Z,95716.00
2019-04-14T20:01:24.427Z,95724.00
2019-04-14T20:03:54.490Z,95720.00
2019-04-14T20:06:24.614Z,95724.00
2019-04-14T20:08:54.746Z,95729.00
2019-04-14T20:11:24.926Z,95727.00
2019-04-14T20:13:55.056Z,95724.00
2019-04-14T20:16:42.684Z,95733.00
2019-04-14T20:19:28.942Z,95735.00
2019-04-14T20:22:16.900Z,95733.00
2019-04-14T20:24:56.136Z,95747.00
2019-04-14T20:27:31.811Z,95748.00
2019-04-14T20:30:06.435Z,95759.00
2019-04-14T20:32:37.795Z,95751.00
2019-04-14T20:35:08.750Z,95756.00
2019-04-14T20:37:38.771Z,95745.00
2019-04-14T20:40:09.598Z,95752.00
2019-04-14T20:42:39.655Z,95745.00
2019-04-14T20:45:13.464Z,95747.00
2019-04-14T20:47:43.672Z,95755.00
2019-04-14T20:50:13.896Z,95766.00
2019-04-14T20:52:43.976Z,95759.00
2019-04-14T20:55:14.488Z,95765.00
2019-04-14T20:57:44.601Z,95768.00
2019-04-14T21:00:16.816Z,95766.00
2019-04-14T21:03:04.241Z,95762.00
2019-04-14T21:05:45.802Z,95773.00
2019-04-14T21:08:46.791Z,95773.00
2019-04-14T21:11:26.059Z,95784.00
2019-04-14T21:14:23.846Z,95777.00
2019-04-14T21:16:58.947Z,95777.00
2019-04-14T21:19:54.429Z,95772.00
2019-04-14T21:22:34.304Z,95791.00
2019-04-14T21:25:23.453Z,95778.00
2019-04-14T21:28:11.013Z,95783.00
2019-04-14T21:30:46.163Z,95786.00
2019-04-14T21:33:29.391Z,95780.00
2019-04-14T21:36:22.090Z,95773.00
2019-04-14T21:39:11.156Z,95783.00
2019-04-14T21:41:41.868Z,95790.00
2019-04-14T21:44:12.027Z,95797.00
2019-04-14T21:46:42.030Z,95800.00
2019-04-14T21:49:12.018Z,95794.00
2019-04-14T21:52:04.958Z,95809.00
2019-04-14T21:54:34.973Z,95804.00
2019-04-14T21:57:22.535Z,95810.00
2019-04-14T22:00:14.306Z,95812.00
2019-04-14T22:03:01.957Z,95803.00
2019-04-14T22:05:41.969Z,95807.00
2019-04-14T22:08:15.925Z,95808.00
2019-04-14T22:10:49.953Z,95801.00
2019-04-14T22:13:20.301Z,95800.00
2019-04-14T22:15:50.308Z,95808.00
2019-04-14T22:18:20.404Z,95819.00
2019-04-14T22:20:50.406Z,95821.00
2019-04-14T22:23:20.558Z,95827.00
2019-04-14T22:25:50.635Z,95823.00
2019-04-14T22:28:20.813Z,95819.00
2019-04-14T22:30:51.025Z,95838.00
2019-04-14T22:33:21.126Z,95831.00
2019-04-14T22:35:51.057Z,95836.00
2019-04-14T22:38:21.115Z,95821.00
2019-04-14T22:40:51.110Z,95828.00
2019-04-14T22:43:21.163Z,95830.00
2019-04-14T22:45:51.291Z,95832.00
2019-04-14T22:48:21.415Z,95830.00
2019-04-14T22:50:51.496Z,95833.00
2019-04-14T22:53:21.398Z,95837.00
2019-04-14T22:55:51.730Z,95840.00
2019-04-14T22:58:21.812Z,95832.00
2019-04-14T23:00:56.207Z,95834.00
2019-04-14T23:03:51.596Z,95849.00
2019-04-14T23:06:44.356Z,95836.00
2019-04-14T23:09:39.196Z,95847.00
2019-04-14T23:12:28.841Z,95838.00
2019-04-14T23:15:13.993Z,95847.00
2019-04-14T23:18:06.126Z,95854.00
2019-04-14T23:20:57.871Z,95852.00
2019-04-14T23:23:47.861Z,95855.00
2019-04-14T23:26:18.061Z,95856.00
2019-04-14T23:28:48.012Z,95856.00
2019-04-14T23:31:20.311Z,95850.00
2019-04-14T23:33:50.367Z,95843.00
2019-04-14T23:36:20.447Z,95865.00
2019-04-14T23:38:50.466Z,95864.00
2019-04-14T23:41:20.472Z,95855.00
2019-04-14T23:43:50.558Z,95869.00
2019-04-14T23:46:20.650Z,95875.00
2019-04-14T23:48:50.649Z,95865.00
2019-04-14T23:51:20.723Z,95855.00
2019-04-14T23:53:50.681Z,95862.00
2019-04-14T23:56:22.039Z,95864.00
2019-04-14T23:58:52.183Z,95857.00
